sensor_id;sensor_type;location;lat;lon;timestamp;pressure;altitude;pressure_sealevel;temperature;humidity
73101;BME280;61288;53.446;-2.266;2023-09-19T00:00:42;101123.41;;;9.62;100.00
73101;BME280;61288;53.446;-2.266;2023-09-19T00:03:09;101132.94;;;9.61;100.00
73101;BME280;61288;53.446;-2.266;2023-09-19T00:05:36;101125.09;;;9.63;100.00
73101;BME280;61288;53.446;-2.266;2023-09-19T00:08:02;101125.09;;;9.63;100.00
73101;BME280;61288;53.446;-2.266;2023-09-19T00:10:33;101133.66;;;9.65;100.00
73101;BME280;61288;53.446;-2.266;2023-09-19T00:13:03;101122.41;;;9.66;100.00
73101;BME280;61288;53.446;-2.266;2023-09-19T00:15:43;101115.53;;;9.66;100.00
73101;BME280;61288;53.446;-2.266;2023-09-19T00:18:15;101118.03;;;9.68;100.00
73101;BME280;61288;53.446;-2.266;2023-09-19T00:20:46;101109.38;;;9.69;100.00
73101;BME280;61288;53.446;-2.266;2023-09-19T00:23:17;101105.91;;;9.70;100.00
73101;BME280;61288;53.446;-2.266;2023-09-19T00:25:44;101112.78;;;9.71;100.00
73101;BME280;61288;53.446;-2.266;2023-09-19T00:28:10;101117.94;;;9.71;100.00
73101;BME280;61288;53.446;-2.266;2023-09-19T00:30:36;101103.28;;;9.72;100.00
73101;BME280;61288;53.446;-2.266;2023-09-19T00:33:04;101105.88;;;9.72;100.00
73101;BME280;61288;53.446;-2.266;2023-09-19T00:35:31;101099.81;;;9.73;100.00
73101;BME280;61288;53.446;-2.266;2023-09-19T00:37:58;101104.91;;;9.74;100.00
73101;BME280;61288;53.446;-2.266;2023-09-19T00:40:23;101104.91;;;9.74;100.00
73101;BME280;61288;53.446;-2.266;2023-09-19T00:42:49;101115.34;;;9.73;100.00
73101;BME280;61288;53.446;-2.266;2023-09-19T00:45:17;101128.16;;;9.76;100.00
73101;BME280;61288;53.446;-2.266;2023-09-19T00:47:45;101121.25;;;9.76;100.00
73101;BME280;61288;53.446;-2.266;2023-09-19T00:50:13;101116.03;;;9.78;100.00
73101;BME280;61288;53.446;-2.266;2023-09-19T00:52:42;101118.59;;;9.79;100.00
73101;BME280;61288;53.446;-2.266;2023-09-19T00:55:08;101114.22;;;9.81;100.00
73101;BME280;61288;53.446;-2.266;2023-09-19T00:57:35;101122.78;;;9.83;100.00
73101;BME280;61288;53.446;-2.266;2023-09-19T01:00:02;101121.81;;;9.86;100.00
73101;BME280;61288;53.446;-2.266;2023-09-19T01:02:32;101114.91;;;9.87;100.00
73101;BME280;61288;53.446;-2.266;2023-09-19T01:04:59;101114.84;;;9.88;100.00
73101;BME280;61288;53.446;-2.266;2023-09-19T01:07:30;101108.78;;;9.89;100.00
73101;BME280;61288;53.446;-2.266;2023-09-19T01:10:03;101098.28;;;9.94;100.00
73101;BME280;61288;53.446;-2.266;2023-09-19T01:15:31;101103.44;;;9.95;100.00
73101;BME280;61288;53.446;-2.266;2023-09-19T01:21:03;101108.59;;;9.95;100.00
73101;BME280;61288;53.446;-2.266;2023-09-19T01:26:49;101112.03;;;9.96;100.00
73101;BME280;61288;53.446;-2.266;2023-09-19T01:29:46;101110.31;;;9.96;100.00
73101;BME280;61288;53.446;-2.266;2023-09-19T01:32:19;101109.41;;;9.97;100.00
73101;BME280;61288;53.446;-2.266;2023-09-19T01:37:21;101096.47;;;9.97;100.00
73101;BME280;61288;53.446;-2.266;2023-09-19T01:39:57;101100.78;;;9.97;100.00
73101;BME280;61288;53.446;-2.266;2023-09-19T01:56:23;101099.75;;;10.03;100.00
73101;BME280;61288;53.446;-2.266;2023-09-19T01:58:54;101098.00;;;10.03;100.00
73101;BME280;61288;53.446;-2.266;2023-09-19T02:01:24;101093.66;;;10.04;100.00
73101;BME280;61288;53.446;-2.266;2023-09-19T02:03:50;101090.13;;;10.06;100.00
73101;BME280;61288;53.446;-2.266;2023-09-19T02:06:17;101101.22;;;10.10;100.00
73101;BME280;61288;53.446;-2.266;2023-09-19T02:08:44;101092.56;;;10.11;100.00
73101;BME280;61288;53.446;-2.266;2023-09-19T02:11:11;101088.25;;;10.11;100.00
73101;BME280;61288;53.446;-2.266;2023-09-19T02:13:37;101082.13;;;10.14;100.00
73101;BME280;61288;53.446;-2.266;2023-09-19T02:16:03;101077.72;;;10.16;100.00
73101;BME280;61288;53.446;-2.266;2023-09-19T02:18:29;101081.19;;;10.17;100.00
73101;BME280;61288;53.446;-2.266;2023-09-19T02:20:56;101080.28;;;10.18;100.00
73101;BME280;61288;53.446;-2.266;2023-09-19T02:23:24;101086.28;;;10.18;100.00
73101;BME280;61288;53.446;-2.266;2023-09-19T02:25:54;101084.56;;;10.19;100.00
73101;BME280;61288;53.446;-2.266;2023-09-19T02:28:20;101098.41;;;10.18;100.00
73101;BME280;61288;53.446;-2.266;2023-09-19T02:30:48;101087.16;;;10.19;100.00
73101;BME280;61288;53.446;-2.266;2023-09-19T02:33:14;101080.22;;;10.19;100.00
73101;BME280;61288;53.446;-2.266;2023-09-19T02:35:40;101079.38;;;10.19;100.00
73101;BME280;61288;53.446;-2.266;2023-09-19T02:38:05;101067.25;;;10.19;100.00
73101;BME280;61288;53.446;-2.266;2023-09-19T02:40:33;101073.31;;;10.20;100.00
73101;BME280;61288;53.446;-2.266;2023-09-19T02:43:01;101066.38;;;10.20;100.00
73101;BME280;61288;53.446;-2.266;2023-09-19T02:45:27;101063.78;;;10.20;100.00
73101;BME280;61288;53.446;-2.266;2023-09-19T02:47:53;101066.38;;;10.20;100.00
73101;BME280;61288;53.446;-2.266;2023-09-19T02:50:20;101062.88;;;10.21;100.00
73101;BME280;61288;53.446;-2.266;2023-09-19T02:52:46;101065.44;;;10.23;100.00
73101;BME280;61288;53.446;-2.266;2023-09-19T02:55:15;101065.44;;;10.23;100.00
73101;BME280;61288;53.446;-2.266;2023-09-19T02:57:50;101057.59;;;10.24;100.00
73101;BME280;61288;53.446;-2.266;2023-09-19T03:00:17;101051.50;;;10.25;100.00
73101;BME280;61288;53.446;-2.266;2023-09-19T03:02:56;101042.06;;;10.24;100.00
73101;BME280;61288;53.446;-2.266;2023-09-19T03:05:23;101040.31;;;10.25;100.00
73101;BME280;61288;53.446;-2.266;2023-09-19T03:07:49;101036.03;;;10.24;100.00
73101;BME280;61288;53.446;-2.266;2023-09-19T03:10:19;101036.03;;;10.24;100.00
73101;BME280;61288;53.446;-2.266;2023-09-19T03:12:45;101017.94;;;10.22;100.00
73101;BME280;61288;53.446;-2.266;2023-09-19T03:15:11;101017.22;;;10.19;100.00
73101;BME280;61288;53.446;-2.266;2023-09-19T03:17:36;101013.88;;;10.15;100.00
73101;BME280;61288;53.446;-2.266;2023-09-19T03:20:03;100996.72;;;10.13;100.00
73101;BME280;61288;53.446;-2.266;2023-09-19T03:22:34;101008.97;;;10.07;100.00
73101;BME280;61288;53.446;-2.266;2023-09-19T03:25:00;100990.16;;;10.02;100.00
73101;BME280;61288;53.446;-2.266;2023-09-19T03:27:26;100972.09;;;10.01;100.00
73101;BME280;61288;53.446;-2.266;2023-09-19T03:29:52;100958.28;;;10.00;100.00
73101;BME280;61288;53.446;-2.266;2023-09-19T03:32:19;100955.78;;;9.99;100.00
73101;BME280;61288;53.446;-2.266;2023-09-19T03:34:44;100948.13;;;9.95;100.00
73101;BME280;61288;53.446;-2.266;2023-09-19T03:37:10;100944.66;;;9.95;100.00
73101;BME280;61288;53.446;-2.266;2023-09-19T03:39:35;100943.00;;;9.92;100.00
73101;BME280;61288;53.446;-2.266;2023-09-19T03:42:02;100934.41;;;9.92;100.00
73101;BME280;61288;53.446;-2.266;2023-09-19T03:44:32;100930.25;;;9.88;100.00
73101;BME280;61288;53.446;-2.266;2023-09-19T03:47:00;100912.13;;;9.88;100.00
73101;BME280;61288;53.446;-2.266;2023-09-19T03:49:26;100903.47;;;9.89;100.00
73101;BME280;61288;53.446;-2.266;2023-09-19T03:51:52;100895.75;;;9.87;100.00
73101;BME280;61288;53.446;-2.266;2023-09-19T03:54:18;100887.25;;;9.83;100.00
73101;BME280;61288;53.446;-2.266;2023-09-19T03:56:45;100876.94;;;9.82;100.00
73101;BME280;61288;53.446;-2.266;2023-09-19T03:59:11;100889.94;;;9.80;100.00
73101;BME280;61288;53.446;-2.266;2023-09-19T04:01:37;100896.84;;;9.80;100.00
73101;BME280;61288;53.446;-2.266;2023-09-19T04:04:03;100900.31;;;9.80;100.00
73101;BME280;61288;53.446;-2.266;2023-09-19T04:06:35;100910.66;;;9.80;100.00
73101;BME280;61288;53.446;-2.266;2023-09-19T04:09:04;100920.22;;;9.78;100.00
73101;BME280;61288;53.446;-2.266;2023-09-19T04:11:32;100916.81;;;9.76;100.00
73101;BME280;61288;53.446;-2.266;2023-09-19T04:13:58;100914.31;;;9.73;100.00
73101;BME280;61288;53.446;-2.266;2023-09-19T04:16:23;100903.97;;;9.73;100.00
73101;BME280;61288;53.446;-2.266;2023-09-19T04:18:49;100905.75;;;9.71;100.00
73101;BME280;61288;53.446;-2.266;2023-09-19T04:21:14;100893.72;;;9.70;100.00
73101;BME280;61288;53.446;-2.266;2023-09-19T04:23:40;100898.09;;;9.68;100.00
73101;BME280;61288;53.446;-2.266;2023-09-19T04:26:05;100895.59;;;9.66;100.00
73101;BME280;61288;53.446;-2.266;2023-09-19T04:28:31;100897.31;;;9.66;100.00
73101;BME280;61288;53.446;-2.266;2023-09-19T04:30:57;100899.91;;;9.66;100.00
73101;BME280;61288;53.446;-2.266;2023-09-19T04:33:24;100900.81;;;9.65;100.00
73101;BME280;61288;53.446;-2.266;2023-09-19T04:35:50;100908.56;;;9.65;100.00
73101;BME280;61288;53.446;-2.266;2023-09-19T04:38:20;100906.88;;;9.64;100.00
73101;BME280;61288;53.446;-2.266;2023-09-19T04:40:46;100910.34;;;9.63;100.00
73101;BME280;61288;53.446;-2.266;2023-09-19T04:43:11;100910.44;;;9.61;100.00
73101;BME280;61288;53.446;-2.266;2023-09-19T04:45:39;100901.81;;;9.61;100.00
73101;BME280;61288;53.446;-2.266;2023-09-19T04:48:05;100914.75;;;9.61;100.00
73101;BME280;61288;53.446;-2.266;2023-09-19T04:50:32;100915.59;;;9.61;100.00
73101;BME280;61288;53.446;-2.266;2023-09-19T04:52:59;100918.19;;;9.61;100.00
73101;BME280;61288;53.446;-2.266;2023-09-19T04:55:25;100920.81;;;9.60;100.00
73101;BME280;61288;53.446;-2.266;2023-09-19T04:57:51;100929.41;;;9.60;100.00
73101;BME280;61288;53.446;-2.266;2023-09-19T05:00:19;100935.47;;;9.59;100.00
73101;BME280;61288;53.446;-2.266;2023-09-19T05:02:50;100938.91;;;9.60;100.00
73101;BME280;61288;53.446;-2.266;2023-09-19T05:05:18;100931.19;;;9.58;100.00
73101;BME280;61288;53.446;-2.266;2023-09-19T05:07:44;100945.88;;;9.58;100.00
73101;BME280;61288;53.446;-2.266;2023-09-19T05:10:10;100947.59;;;9.59;100.00
73101;BME280;61288;53.446;-2.266;2023-09-19T05:12:37;100948.41;;;9.59;100.00
73101;BME280;61288;53.446;-2.266;2023-09-19T05:15:06;100957.84;;;9.60;100.00
73101;BME280;61288;53.446;-2.266;2023-09-19T05:17:33;100971.66;;;9.61;100.00
73101;BME280;61288;53.446;-2.266;2023-09-19T05:19:59;100971.63;;;9.62;100.00
73101;BME280;61288;53.446;-2.266;2023-09-19T05:22:31;100979.22;;;9.67;100.00
73101;BME280;61288;53.446;-2.266;2023-09-19T05:24:58;100976.53;;;9.70;100.00
73101;BME280;61288;53.446;-2.266;2023-09-19T05:27:24;100981.66;;;9.72;100.00
73101;BME280;61288;53.446;-2.266;2023-09-19T05:29:50;100998.78;;;9.76;100.00
73101;BME280;61288;53.446;-2.266;2023-09-19T05:32:18;101012.47;;;9.79;100.00
73101;BME280;61288;53.446;-2.266;2023-09-19T05:34:46;101026.13;;;9.85;100.00
73101;BME280;61288;53.446;-2.266;2023-09-19T05:37:19;101032.81;;;9.90;100.00
73101;BME280;61288;53.446;-2.266;2023-09-19T05:39:45;101047.31;;;9.96;100.00
73101;BME280;61288;53.446;-2.266;2023-09-19T05:42:10;101056.63;;;10.02;100.00
73101;BME280;61288;53.446;-2.266;2023-09-19T05:44:36;101059.84;;;10.08;100.00
73101;BME280;61288;53.446;-2.266;2023-09-19T05:47:02;101088.16;;;10.15;100.00
73101;BME280;61288;53.446;-2.266;2023-09-19T05:49:28;101113.88;;;10.19;100.00
73101;BME280;61288;53.446;-2.266;2023-09-19T05:51:53;101141.34;;;10.25;100.00
73101;BME280;61288;53.446;-2.266;2023-09-19T05:54:20;101172.31;;;10.28;100.00
73101;BME280;61288;53.446;-2.266;2023-09-19T05:56:46;101181.69;;;10.32;100.00
73101;BME280;61288;53.446;-2.266;2023-09-19T05:59:13;101197.13;;;10.35;100.00
73101;BME280;61288;53.446;-2.266;2023-09-19T06:01:42;101214.25;;;10.39;100.00
73101;BME280;61288;53.446;-2.266;2023-09-19T06:04:08;101215.84;;;10.45;100.00
73101;BME280;61288;53.446;-2.266;2023-09-19T06:06:33;101226.00;;;10.51;100.00
73101;BME280;61288;53.446;-2.266;2023-09-19T06:09:04;101250.03;;;10.57;100.00
73101;BME280;61288;53.446;-2.266;2023-09-19T06:11:35;101274.91;;;10.62;100.00
73101;BME280;61288;53.446;-2.266;2023-09-19T06:14:04;101307.59;;;10.66;100.00
73101;BME280;61288;53.446;-2.266;2023-09-19T06:16:30;101315.25;;;10.71;100.00
73101;BME280;61288;53.446;-2.266;2023-09-19T06:18:58;101328.03;;;10.76;100.00
73101;BME280;61288;53.446;-2.266;2023-09-19T06:21:26;101339.13;;;10.81;100.00
73101;BME280;61288;53.446;-2.266;2023-09-19T06:23:52;101365.81;;;10.84;100.00
73101;BME280;61288;53.446;-2.266;2023-09-19T06:26:19;101372.59;;;10.89;100.00
73101;BME280;61288;53.446;-2.266;2023-09-19T06:28:45;101350.91;;;10.91;100.00
73101;BME280;61288;53.446;-2.266;2023-09-19T06:31:11;101317.97;;;10.95;100.00
73101;BME280;61288;53.446;-2.266;2023-09-19T06:33:38;101287.56;;;10.98;100.00
73101;BME280;61288;53.446;-2.266;2023-09-19T06:36:05;101258.06;;;11.03;100.00
73101;BME280;61288;53.446;-2.266;2023-09-19T06:38:30;101225.13;;;11.05;100.00
73101;BME280;61288;53.446;-2.266;2023-09-19T06:40:58;101222.41;;;11.09;100.00
73101;BME280;61288;53.446;-2.266;2023-09-19T06:43:24;101226.63;;;11.12;100.00
73101;BME280;61288;53.446;-2.266;2023-09-19T06:45:49;101239.53;;;11.13;100.00
73101;BME280;61288;53.446;-2.266;2023-09-19T06:48:17;101261.94;;;11.16;100.00
73101;BME280;61288;53.446;-2.266;2023-09-19T06:50:43;101317.13;;;11.20;100.00
73101;BME280;61288;53.446;-2.266;2023-09-19T06:53:10;101363.69;;;11.24;100.00
73101;BME280;61288;53.446;-2.266;2023-09-19T06:55:35;101407.69;;;11.27;100.00
73101;BME280;61288;53.446;-2.266;2023-09-19T06:58:02;101397.22;;;11.31;100.00
73101;BME280;61288;53.446;-2.266;2023-09-19T07:00:27;101434.28;;;11.34;100.00
73101;BME280;61288;53.446;-2.266;2023-09-19T07:03:01;101473.16;;;11.36;100.00
73101;BME280;61288;53.446;-2.266;2023-09-19T07:05:30;101537.03;;;11.40;100.00
73101;BME280;61288;53.446;-2.266;2023-09-19T07:07:57;101599.22;;;11.43;100.00
73101;BME280;61288;53.446;-2.266;2023-09-19T07:10:25;101661.47;;;11.45;100.00
73101;BME280;61288;53.446;-2.266;2023-09-19T07:15:22;101907.91;;;11.49;100.00
73101;BME280;61288;53.446;-2.266;2023-09-19T07:17:51;101966.66;;;11.52;100.00
73101;BME280;61288;53.446;-2.266;2023-09-19T07:20:18;101984.72;;;11.56;100.00
73101;BME280;61288;53.446;-2.266;2023-09-19T07:22:44;102015.81;;;11.60;100.00
73101;BME280;61288;53.446;-2.266;2023-09-19T07:25:10;102060.69;;;11.65;100.00
73101;BME280;61288;53.446;-2.266;2023-09-19T07:27:35;102098.66;;;11.69;100.00
73101;BME280;61288;53.446;-2.266;2023-09-19T07:30:01;102193.75;;;11.75;100.00
73101;BME280;61288;53.446;-2.266;2023-09-19T07:32:26;102272.47;;;11.78;100.00
73101;BME280;61288;53.446;-2.266;2023-09-19T07:34:52;103386.69;;;11.83;100.00
73101;BME280;61288;53.446;-2.266;2023-09-19T07:37:20;103885.53;;;11.84;100.00
73101;BME280;61288;53.446;-2.266;2023-09-19T07:39:46;104251.91;;;11.86;100.00
73101;BME280;61288;53.446;-2.266;2023-09-19T07:42:12;104750.03;;;11.89;100.00
73101;BME280;61288;53.446;-2.266;2023-09-19T07:44:44;105293.41;;;11.93;100.00
73101;BME280;61288;53.446;-2.266;2023-09-19T07:47:14;106144.53;;;11.97;100.00
73101;BME280;61288;53.446;-2.266;2023-09-19T07:49:39;106996.97;;;12.03;100.00
73101;BME280;61288;53.446;-2.266;2023-09-19T07:52:07;107820.19;;;12.08;100.00
73101;BME280;61288;53.446;-2.266;2023-09-19T07:54:33;108713.16;;;12.14;100.00
73101;BME280;61288;53.446;-2.266;2023-09-19T07:57:04;109605.75;;;12.21;100.00
73101;BME280;61288;53.446;-2.266;2023-09-19T07:59:30;110368.38;;;12.27;100.00
73101;BME280;61288;53.446;-2.266;2023-09-19T08:01:55;111306.72;;;12.33;100.00
73101;BME280;61288;53.446;-2.266;2023-09-19T08:04:23;111749.25;;;12.37;100.00
73101;BME280;61288;53.446;-2.266;2023-09-19T08:06:51;112185.25;;;12.44;100.00
73101;BME280;61288;53.446;-2.266;2023-09-19T08:09:17;112653.34;;;12.49;100.00
73101;BME280;61288;53.446;-2.266;2023-09-19T08:11:47;113225.16;;;12.55;100.00
73101;BME280;61288;53.446;-2.266;2023-09-19T08:14:13;113810.16;;;12.61;100.00
73101;BME280;61288;53.446;-2.266;2023-09-19T08:16:40;114275.16;;;12.66;100.00
73101;BME280;61288;53.446;-2.266;2023-09-19T08:19:10;115409.50;;;12.68;100.00
73101;BME280;61288;53.446;-2.266;2023-09-19T08:21:36;115761.66;;;12.73;100.00
73101;BME280;61288;53.446;-2.266;2023-09-19T08:24:02;116018.00;;;12.76;100.00
73101;BME280;61288;53.446;-2.266;2023-09-19T08:26:29;116249.59;;;12.81;100.00
73101;BME280;61288;53.446;-2.266;2023-09-19T08:28:54;116361.78;;;12.85;100.00
73101;BME280;61288;53.446;-2.266;2023-09-19T08:31:21;116456.38;;;12.88;100.00
73101;BME280;61288;53.446;-2.266;2023-09-19T08:33:46;116538.25;;;12.93;100.00
73101;BME280;61288;53.446;-2.266;2023-09-19T08:36:15;116618.16;;;12.96;100.00
73101;BME280;61288;53.446;-2.266;2023-09-19T08:38:40;116712.47;;;13.02;100.00
73101;BME280;61288;53.446;-2.266;2023-09-19T08:41:07;116786.84;;;13.08;100.00
73101;BME280;61288;53.446;-2.266;2023-09-19T08:43:34;116867.47;;;13.15;100.00
73101;BME280;61288;53.446;-2.266;2023-09-19T08:46:16;116917.69;;;13.22;100.00
73101;BME280;61288;53.446;-2.266;2023-09-19T08:49:17;116915.06;;;13.26;100.00
73101;BME280;61288;53.446;-2.266;2023-09-19T08:51:54;116975.13;;;13.35;100.00
73101;BME280;61288;53.446;-2.266;2023-09-19T08:54:33;116982.28;;;13.40;100.00
73101;BME280;61288;53.446;-2.266;2023-09-19T08:57:00;117018.91;;;13.44;100.00
73101;BME280;61288;53.446;-2.266;2023-09-19T08:59:33;117031.59;;;13.51;100.00
73101;BME280;61288;53.446;-2.266;2023-09-19T09:02:02;117036.16;;;13.56;100.00
73101;BME280;61288;53.446;-2.266;2023-09-19T09:04:29;117003.78;;;13.64;100.00
73101;BME280;61288;53.446;-2.266;2023-09-19T09:06:56;116910.28;;;13.71;100.00
73101;BME280;61288;53.446;-2.266;2023-09-19T09:09:23;116712.88;;;13.77;100.00
73101;BME280;61288;53.446;-2.266;2023-09-19T09:11:49;116446.81;;;13.80;100.00
73101;BME280;61288;53.446;-2.266;2023-09-19T09:14:19;116176.81;;;13.85;100.00
73101;BME280;61288;53.446;-2.266;2023-09-19T09:16:46;115784.81;;;13.91;100.00
73101;BME280;61288;53.446;-2.266;2023-09-19T09:19:14;115240.66;;;13.94;100.00
73101;BME280;61288;53.446;-2.266;2023-09-19T09:21:42;114695.81;;;13.97;100.00
73101;BME280;61288;53.446;-2.266;2023-09-19T09:24:27;113858.50;;;14.03;100.00
73101;BME280;61288;53.446;-2.266;2023-09-19T09:26:58;112848.72;;;14.08;100.00
73101;BME280;61288;53.446;-2.266;2023-09-19T09:29:57;111375.69;;;14.12;100.00
73101;BME280;61288;53.446;-2.266;2023-09-19T09:32:28;110024.00;;;14.18;100.00
73101;BME280;61288;53.446;-2.266;2023-09-19T09:34:59;108868.47;;;14.24;100.00
73101;BME280;61288;53.446;-2.266;2023-09-19T09:37:26;107759.09;;;14.29;100.00
73101;BME280;61288;53.446;-2.266;2023-09-19T09:39:59;106621.88;;;14.31;100.00
73101;BME280;61288;53.446;-2.266;2023-09-19T09:42:45;105897.22;;;14.33;100.00
73101;BME280;61288;53.446;-2.266;2023-09-19T09:45:22;105373.66;;;14.38;100.00
73101;BME280;61288;53.446;-2.266;2023-09-19T09:48:02;104919.63;;;14.41;100.00
73101;BME280;61288;53.446;-2.266;2023-09-19T09:50:48;104644.81;;;14.42;100.00
73101;BME280;61288;53.446;-2.266;2023-09-19T09:53:27;104498.69;;;14.46;100.00
73101;BME280;61288;53.446;-2.266;2023-09-19T09:58:30;104419.53;;;14.51;100.00
73101;BME280;61288;53.446;-2.266;2023-09-19T10:01:01;104371.72;;;14.54;100.00
73101;BME280;61288;53.446;-2.266;2023-09-19T10:03:37;104439.53;;;14.55;100.00
73101;BME280;61288;53.446;-2.266;2023-09-19T10:06:10;104473.50;;;14.57;100.00
73101;BME280;61288;53.446;-2.266;2023-09-19T10:09:04;104539.63;;;14.62;100.00
73101;BME280;61288;53.446;-2.266;2023-09-19T10:11:47;104442.19;;;14.63;100.00
73101;BME280;61288;53.446;-2.266;2023-09-19T10:14:25;104316.03;;;14.66;100.00
73101;BME280;61288;53.446;-2.266;2023-09-19T10:16:56;104236.84;;;14.68;100.00
73101;BME280;61288;53.446;-2.266;2023-09-19T10:19:58;104233.38;;;14.72;100.00
73101;BME280;61288;53.446;-2.266;2023-09-19T10:22:28;104183.81;;;14.76;100.00
73101;BME280;61288;53.446;-2.266;2023-09-19T10:24:59;104219.47;;;14.78;100.00
73101;BME280;61288;53.446;-2.266;2023-09-19T10:27:26;104467.47;;;14.81;100.00
73101;BME280;61288;53.446;-2.266;2023-09-19T10:29:53;104797.38;;;14.85;100.00
73101;BME280;61288;53.446;-2.266;2023-09-19T10:32:25;105107.25;;;14.87;100.00
73101;BME280;61288;53.446;-2.266;2023-09-19T10:34:52;105475.56;;;14.91;100.00
73101;BME280;61288;53.446;-2.266;2023-09-19T10:37:21;105866.56;;;14.92;100.00
73101;BME280;61288;53.446;-2.266;2023-09-19T10:39:51;106356.03;;;14.95;100.00
73101;BME280;61288;53.446;-2.266;2023-09-19T10:42:19;106842.91;;;14.96;100.00
73101;BME280;61288;53.446;-2.266;2023-09-19T10:44:47;107356.13;;;14.99;100.00
73101;BME280;61288;53.446;-2.266;2023-09-19T10:47:20;107895.63;;;15.03;100.00
73101;BME280;61288;53.446;-2.266;2023-09-19T10:49:48;108616.41;;;15.06;100.00
73101;BME280;61288;53.446;-2.266;2023-09-19T10:52:20;109371.44;;;15.08;100.00
73101;BME280;61288;53.446;-2.266;2023-09-19T10:54:51;110046.34;;;15.10;100.00
73101;BME280;61288;53.446;-2.266;2023-09-19T10:57:21;110664.75;;;15.12;100.00
73101;BME280;61288;53.446;-2.266;2023-09-19T11:05:40;113230.41;;;15.20;100.00
73101;BME280;61288;53.446;-2.266;2023-09-19T11:08:10;114094.72;;;15.21;100.00
73101;BME280;61288;53.446;-2.266;2023-09-19T11:10:51;114870.88;;;15.22;100.00
73101;BME280;61288;53.446;-2.266;2023-09-19T11:13:30;115578.72;;;15.25;100.00
73101;BME280;61288;53.446;-2.266;2023-09-19T11:16:04;116252.63;;;15.28;100.00
73101;BME280;61288;53.446;-2.266;2023-09-19T11:26:44;117904.44;;;15.35;100.00
73101;BME280;61288;53.446;-2.266;2023-09-19T11:29:29;118241.66;;;15.35;100.00
73101;BME280;61288;53.446;-2.266;2023-09-19T11:31:59;118548.81;;;15.36;100.00
73101;BME280;61288;53.446;-2.266;2023-09-19T11:39:37;119317.66;;;15.42;100.00
73101;BME280;61288;53.446;-2.266;2023-09-19T11:48:29;119956.19;;;15.47;100.00
73101;BME280;61288;53.446;-2.266;2023-09-19T11:50:56;120220.53;;;15.48;100.00
73101;BME280;61288;53.446;-2.266;2023-09-19T11:53:23;120476.44;;;15.50;100.00
73101;BME280;61288;53.446;-2.266;2023-09-19T11:55:49;120775.41;;;15.52;100.00
73101;BME280;61288;53.446;-2.266;2023-09-19T11:58:15;120999.44;;;15.53;100.00
73101;BME280;61288;53.446;-2.266;2023-09-19T12:00:43;121198.75;;;15.55;100.00
73101;BME280;61288;53.446;-2.266;2023-09-19T12:03:16;121359.84;;;15.56;100.00
73101;BME280;61288;53.446;-2.266;2023-09-19T12:05:43;121558.72;;;15.57;100.00
73101;BME280;61288;53.446;-2.266;2023-09-19T12:08:09;121809.00;;;15.60;100.00
73101;BME280;61288;53.446;-2.266;2023-09-19T12:11:04;122021.66;;;15.60;100.00
73101;BME280;61288;53.446;-2.266;2023-09-19T12:13:35;122249.03;;;15.59;100.00
73101;BME280;61288;53.446;-2.266;2023-09-19T12:16:11;122451.66;;;15.61;100.00
73101;BME280;61288;53.446;-2.266;2023-09-19T12:18:40;122679.50;;;15.62;100.00
73101;BME280;61288;53.446;-2.266;2023-09-19T12:21:30;122880.25;;;15.60;100.00
73101;BME280;61288;53.446;-2.266;2023-09-19T12:24:12;123057.75;;;15.59;100.00
73101;BME280;61288;53.446;-2.266;2023-09-19T12:26:45;123300.41;;;15.60;100.00
73101;BME280;61288;53.446;-2.266;2023-09-19T12:29:21;123564.63;;;15.59;100.00
73101;BME280;61288;53.446;-2.266;2023-09-19T12:32:00;123807.31;;;15.60;100.00
73101;BME280;61288;53.446;-2.266;2023-09-19T12:34:32;124079.41;;;15.59;100.00
73101;BME280;61288;53.446;-2.266;2023-09-19T12:39:53;124604.69;;;15.65;100.00
73101;BME280;61288;53.446;-2.266;2023-09-19T12:42:25;124934.63;;;15.67;100.00
73101;BME280;61288;53.446;-2.266;2023-09-19T12:44:54;125183.19;;;15.69;100.00
73101;BME280;61288;53.446;-2.266;2023-09-19T12:47:23;125399.72;;;15.69;100.00
73101;BME280;61288;53.446;-2.266;2023-09-19T12:50:25;125592.06;;;15.71;100.00
73101;BME280;61288;53.446;-2.266;2023-09-19T12:52:56;125848.09;;;15.71;100.00
73101;BME280;61288;53.446;-2.266;2023-09-19T12:55:29;126024.16;;;15.74;100.00
73101;BME280;61288;53.446;-2.266;2023-09-19T12:57:59;126221.34;;;15.77;100.00
73101;BME280;61288;53.446;-2.266;2023-09-19T13:00:37;126424.31;;;15.78;100.00
73101;BME280;61288;53.446;-2.266;2023-09-19T13:03:18;126538.94;;;15.80;100.00
73101;BME280;61288;53.446;-2.266;2023-09-19T13:05:53;126656.75;;;15.81;100.00
73101;BME280;61288;53.446;-2.266;2023-09-19T13:08:27;126763.47;;;15.81;100.00
73101;BME280;61288;53.446;-2.266;2023-09-19T13:11:13;126881.34;;;15.84;100.00
73101;BME280;61288;53.446;-2.266;2023-09-19T13:13:41;126993.38;;;15.86;100.00
73101;BME280;61288;53.446;-2.266;2023-09-19T13:16:07;127070.69;;;15.87;100.00
73101;BME280;61288;53.446;-2.266;2023-09-19T13:18:53;127125.38;;;15.85;100.00
73101;BME280;61288;53.446;-2.266;2023-09-19T13:21:32;127194.25;;;15.84;100.00
73101;BME280;61288;53.446;-2.266;2023-09-19T13:24:24;127151.06;;;15.81;100.00
73101;BME280;61288;53.446;-2.266;2023-09-19T13:26:55;127117.91;;;15.79;100.00
73101;BME280;61288;53.446;-2.266;2023-09-19T13:29:21;127036.91;;;15.78;100.00
73101;BME280;61288;53.446;-2.266;2023-09-19T13:31:52;126925.44;;;15.80;100.00
73101;BME280;61288;53.446;-2.266;2023-09-19T13:34:21;126782.97;;;15.84;100.00
73101;BME280;61288;53.446;-2.266;2023-09-19T13:36:48;126612.63;;;15.85;100.00
73101;BME280;61288;53.446;-2.266;2023-09-19T13:39:15;126298.19;;;15.88;100.00
73101;BME280;61288;53.446;-2.266;2023-09-19T13:41:42;125932.22;;;15.90;100.00
73101;BME280;61288;53.446;-2.266;2023-09-19T13:44:08;125475.31;;;15.88;100.00